createdAt,value
2018-08-08T00:02:25.155Z,5.33
2018-08-08T00:04:53.830Z,5.50
2018-08-08T00:07:22.911Z,5.60
2018-08-08T00:09:51.946Z,5.83
2018-08-08T00:12:21.421Z,5.57
2018-08-08T00:14:50.267Z,5.50
2018-08-08T00:17:18.692Z,5.67
2018-08-08T00:19:47.374Z,5.80
2018-08-08T00:22:16.220Z,6.17
2018-08-08T00:24:44.924Z,6.33
2018-08-08T00:27:13.352Z,5.50
2018-08-08T00:29:41.959Z,6.00
2018-08-08T00:32:10.446Z,7.23
2018-08-08T00:34:38.998Z,7.23
2018-08-08T00:37:07.438Z,7.40
2018-08-08T00:39:35.913Z,7.57
2018-08-08T00:42:04.773Z,7.93
2018-08-08T00:44:33.369Z,7.17
2018-08-08T00:47:02.202Z,6.93
2018-08-08T00:49:30.630Z,7.07
2018-08-08T00:51:59.418Z,7.00
2018-08-08T00:54:28.291Z,6.70
2018-08-08T00:56:56.913Z,6.43
2018-08-08T00:59:25.856Z,6.50
2018-08-08T01:01:54.283Z,6.03
2018-08-08T01:04:23.402Z,5.90
2018-08-08T01:06:52.000Z,5.90
2018-08-08T01:09:20.982Z,6.40
2018-08-08T01:11:49.413Z,5.40
2018-08-08T01:14:18.320Z,5.90
2018-08-08T01:16:47.235Z,6.23
2018-08-08T01:19:15.808Z,5.87
2018-08-08T01:21:44.220Z,5.50
2018-08-08T01:24:12.886Z,6.00
2018-08-08T01:26:41.487Z,5.73
2018-08-08T01:29:10.045Z,5.83
2018-08-08T01:31:38.577Z,5.50
2018-08-08T01:34:07.638Z,6.40
2018-08-08T01:36:36.244Z,6.07
2018-08-08T01:39:07.482Z,5.57
2018-08-08T01:41:35.977Z,5.70
2018-08-08T01:44:05.462Z,5.30
2018-08-08T01:46:34.282Z,5.80
2018-08-08T01:49:03.058Z,5.70
2018-08-08T01:51:31.519Z,5.83
2018-08-08T01:54:00.086Z,5.63
2018-08-08T01:56:28.494Z,5.67
2018-08-08T01:58:57.191Z,5.70
2018-08-08T02:01:25.624Z,5.83
2018-08-08T02:03:54.239Z,5.73
2018-08-08T02:06:23.536Z,6.10
2018-08-08T02:08:52.712Z,5.80
2018-08-08T02:11:21.665Z,5.93
2018-08-08T02:13:50.102Z,5.90
2018-08-08T02:16:18.652Z,6.17
2018-08-08T02:18:47.046Z,5.40
2018-08-08T02:21:15.589Z,5.80
2018-08-08T02:23:44.066Z,6.20
2018-08-08T02:26:12.994Z,6.10
2018-08-08T02:28:41.467Z,6.30
2018-08-08T02:31:10.054Z,5.87
2018-08-08T02:33:38.563Z,5.93
2018-08-08T02:36:07.419Z,5.77
2018-08-08T02:38:35.852Z,5.93
2018-08-08T02:41:04.548Z,6.07
2018-08-08T02:43:33.299Z,6.03
2018-08-08T02:46:01.864Z,6.30
2018-08-08T02:48:30.518Z,5.90
2018-08-08T02:50:59.117Z,6.50
2018-08-08T02:53:27.905Z,5.97
2018-08-08T02:55:56.434Z,6.30
2018-08-08T02:58:24.914Z,6.00
2018-08-08T03:00:54.242Z,6.00
2018-08-08T03:03:23.066Z,6.13
2018-08-08T03:05:52.926Z,6.00
2018-08-08T03:08:21.769Z,6.50
2018-08-08T03:10:52.672Z,6.17
2018-08-08T03:13:21.651Z,6.90
2018-08-08T03:15:50.811Z,6.80
2018-08-08T03:18:19.596Z,6.67
2018-08-08T03:20:49.985Z,6.33
2018-08-08T03:23:19.186Z,6.10
2018-08-08T03:25:48.145Z,6.00
2018-08-08T03:28:16.878Z,6.43
2018-08-08T03:30:45.482Z,5.83
2018-08-08T03:33:14.010Z,5.93
2018-08-08T03:35:42.554Z,5.67
2018-08-08T03:38:10.970Z,5.37
2018-08-08T03:40:39.843Z,5.90
2018-08-08T03:43:08.338Z,5.60
2018-08-08T03:45:36.799Z,6.00
2018-08-08T03:48:05.865Z,5.83
2018-08-08T03:50:34.453Z,5.50
2018-08-08T03:53:02.922Z,5.70
2018-08-08T03:55:31.700Z,5.60
2018-08-08T03:58:00.098Z,5.70
2018-08-08T04:00:28.726Z,5.40
2018-08-08T04:02:57.232Z,6.00
2018-08-08T04:05:25.806Z,5.73
2018-08-08T04:07:54.373Z,5.87
2018-08-08T04:10:23.508Z,5.33
2018-08-08T04:12:52.518Z,6.57
2018-08-08T04:15:21.763Z,5.97
2018-08-08T04:17:50.329Z,6.27
2018-08-08T04:20:18.886Z,5.97
2018-08-08T04:22:47.363Z,6.17
2018-08-08T04:25:16.474Z,6.00
2018-08-08T04:27:45.330Z,6.20
2018-08-08T04:30:16.289Z,5.67
2018-08-08T04:32:44.868Z,6.13
2018-08-08T04:35:14.069Z,5.90
2018-08-08T04:37:42.883Z,6.20
2018-08-08T04:40:16.370Z,5.77
2018-08-08T04:42:45.850Z,6.03
2018-08-08T04:45:15.163Z,6.30
2018-08-08T04:47:44.281Z,5.67
2018-08-08T04:50:13.338Z,5.90
2018-08-08T04:52:43.942Z,6.07
2018-08-08T04:55:13.812Z,5.53
2018-08-08T04:57:43.324Z,5.57
2018-08-08T05:00:13.987Z,5.90
2018-08-08T05:02:42.821Z,5.60
2018-08-08T05:05:11.705Z,5.30
2018-08-08T05:07:40.324Z,5.53
2018-08-08T05:10:10.652Z,5.67
2018-08-08T05:12:40.430Z,5.73
2018-08-08T05:15:12.618Z,5.50
2018-08-08T05:17:41.837Z,5.60
2018-08-08T05:20:13.009Z,5.93
2018-08-08T05:22:41.764Z,5.93
2018-08-08T05:25:10.625Z,5.50
2018-08-08T05:27:39.779Z,5.97
2018-08-08T05:30:16.845Z,5.67
2018-08-08T05:32:45.314Z,6.00
2018-08-08T05:35:14.946Z,5.93
2018-08-08T05:37:43.717Z,6.47
2018-08-08T05:40:15.615Z,5.93
2018-08-08T05:42:44.242Z,6.27
2018-08-08T05:45:14.261Z,6.70
2018-08-08T05:47:44.549Z,6.30
2018-08-08T05:50:13.571Z,6.83
2018-08-08T05:52:43.143Z,6.30
2018-08-08T05:55:13.064Z,6.50
2018-08-08T05:57:42.238Z,6.80
2018-08-08T06:00:18.219Z,6.57
2018-08-08T06:02:46.807Z,6.93
2018-08-08T06:05:15.649Z,6.97
2018-08-08T06:07:44.459Z,6.80
2018-08-08T06:10:12.954Z,6.90
2018-08-08T06:12:42.281Z,6.80
2018-08-08T06:15:16.145Z,6.77
2018-08-08T06:17:44.887Z,6.87
2018-08-08T06:20:15.948Z,7.00
2018-08-08T06:22:45.475Z,7.23
2018-08-08T06:25:14.086Z,7.47
2018-08-08T06:27:44.082Z,7.10
2018-08-08T06:30:16.571Z,7.07
2018-08-08T06:32:45.076Z,6.80
2018-08-08T06:35:14.375Z,6.20
2018-08-08T06:37:43.143Z,6.53
2018-08-08T06:40:12.842Z,6.77
2018-08-08T06:42:41.686Z,6.87
2018-08-08T06:45:12.348Z,6.00
2018-08-08T06:47:41.850Z,6.30
2018-08-08T06:50:11.913Z,6.33
2018-08-08T06:52:41.318Z,6.57
2018-08-08T06:55:12.283Z,6.77
2018-08-08T06:57:41.043Z,6.17
2018-08-08T07:00:14.344Z,6.23
2018-08-08T07:02:44.362Z,6.07
2018-08-08T07:05:13.650Z,6.10
2018-08-08T07:07:42.625Z,5.47
2018-08-08T07:10:11.403Z,6.30
2018-08-08T07:12:40.866Z,5.60
2018-08-08T07:15:11.905Z,5.50
2018-08-08T07:17:40.859Z,5.70
2018-08-08T07:20:10.839Z,5.87
2018-08-08T07:22:39.278Z,5.97
2018-08-08T07:25:09.924Z,5.00
2018-08-08T07:27:38.378Z,5.50
2018-08-08T07:30:09.906Z,5.70
2018-08-08T07:32:39.014Z,5.60
2018-08-08T07:35:08.110Z,5.70
2018-08-08T07:37:36.784Z,6.10
2018-08-08T07:40:07.130Z,6.53
2018-08-08T07:42:35.584Z,5.37
2018-08-08T07:45:05.234Z,5.50
2018-08-08T07:47:34.677Z,5.80
2018-08-08T07:50:04.000Z,5.63
2018-08-08T07:52:32.877Z,4.73
2018-08-08T07:55:01.706Z,5.47
2018-08-08T07:57:30.292Z,4.90
2018-08-08T07:59:58.893Z,5.40
2018-08-08T08:02:27.289Z,5.17
2018-08-08T08:04:55.838Z,5.00
2018-08-08T08:07:24.293Z,4.53
2018-08-08T08:09:52.679Z,4.90
2018-08-08T08:12:21.163Z,4.80
2018-08-08T08:14:49.688Z,5.33
2018-08-08T08:17:18.164Z,5.30
2018-08-08T08:19:46.640Z,5.40
2018-08-08T08:22:15.161Z,5.57
2018-08-08T08:24:43.629Z,5.00
2018-08-08T08:27:12.145Z,5.50
2018-08-08T08:29:40.674Z,4.80
2018-08-08T08:32:09.101Z,4.83
2018-08-08T08:34:37.803Z,5.47
2018-08-08T08:37:06.720Z,5.43
2018-08-08T08:39:35.199Z,5.77
2018-08-08T08:42:04.835Z,5.33
2018-08-08T08:44:33.866Z,5.03
2018-08-08T08:47:02.574Z,5.60
2018-08-08T08:49:31.251Z,5.17
2018-08-08T08:51:59.645Z,5.13
2018-08-08T08:54:28.087Z,5.00
2018-08-08T08:56:56.512Z,5.17
2018-08-08T08:59:25.029Z,5.10
2018-08-08T09:01:53.695Z,5.20
2018-08-08T09:04:22.149Z,6.20
2018-08-08T09:06:50.495Z,5.93
2018-08-08T09:09:18.981Z,6.17
2018-08-08T09:11:47.766Z,5.90
2018-08-08T09:14:16.174Z,5.40
2018-08-08T09:16:44.622Z,5.77
2018-08-08T09:19:13.119Z,6.10
2018-08-08T09:21:41.921Z,5.63
2018-08-08T09:24:10.411Z,6.13
2018-08-08T09:26:39.340Z,6.03
2018-08-08T09:29:07.952Z,6.20
2018-08-08T09:31:36.489Z,6.13
2018-08-08T09:34:05.783Z,6.60
2018-08-08T09:36:34.538Z,6.60
2018-08-08T09:39:04.271Z,6.43
2018-08-08T09:41:32.754Z,6.70
2018-08-08T09:44:01.288Z,6.50
2018-08-08T09:46:29.715Z,7.53
2018-08-08T09:48:58.302Z,6.60
2018-08-08T09:51:26.754Z,6.47
2018-08-08T09:53:55.255Z,6.70
2018-08-08T09:56:23.755Z,6.93
2018-08-08T09:58:52.413Z,6.90
2018-08-08T10:01:26.352Z,7.30
2018-08-08T10:04:01.139Z,6.63
2018-08-08T10:06:29.952Z,6.77
2018-08-08T10:08:58.385Z,6.83
2018-08-08T10:11:26.846Z,6.73
2018-08-08T10:13:55.475Z,7.20
2018-08-08T10:16:23.926Z,7.87
2018-08-08T10:18:52.471Z,6.77
2018-08-08T10:21:20.922Z,6.80
2018-08-08T10:23:49.308Z,6.60
2018-08-08T10:26:17.928Z,6.47
2018-08-08T10:28:46.449Z,6.30
2018-08-08T10:31:14.969Z,6.93
2018-08-08T10:33:43.510Z,6.93
2018-08-08T10:36:11.996Z,7.40
2018-08-08T10:38:40.586Z,6.50
2018-08-08T10:41:09.086Z,6.40
2018-08-08T10:43:37.718Z,6.80
2018-08-08T10:46:06.731Z,6.47
2018-08-08T10:48:35.866Z,6.93
2018-08-08T10:51:05.085Z,6.87
2018-08-08T10:53:33.979Z,6.90
2018-08-08T10:56:02.384Z,6.53
2018-08-08T10:58:31.216Z,6.77
2018-08-08T11:00:59.664Z,6.90
2018-08-08T11:03:28.076Z,6.90
2018-08-08T11:05:56.551Z,6.53
2018-08-08T11:08:25.021Z,6.40
2018-08-08T11:10:53.848Z,6.73
2018-08-08T11:13:22.281Z,6.40
2018-08-08T11:15:50.732Z,6.10
2018-08-08T11:18:19.728Z,6.50
2018-08-08T11:20:48.196Z,6.30
2018-08-08T11:23:16.681Z,6.37
2018-08-08T11:25:45.074Z,6.50
2018-08-08T11:28:13.581Z,6.10
2018-08-08T11:30:41.996Z,6.27
2018-08-08T11:33:10.523Z,6.77
2018-08-08T11:35:38.905Z,6.43
2018-08-08T11:38:07.386Z,6.20
2018-08-08T11:40:36.582Z,6.40
2018-08-08T11:43:05.807Z,6.30
2018-08-08T11:45:35.007Z,6.60
2018-08-08T11:48:03.594Z,6.63
2018-08-08T11:50:31.995Z,6.50
2018-08-08T11:53:01.542Z,7.13
2018-08-08T11:55:30.349Z,6.57
2018-08-08T11:57:58.918Z,5.90
2018-08-08T12:00:27.378Z,6.73
2018-08-08T12:02:55.835Z,6.10
2018-08-08T12:05:24.343Z,6.37
2018-08-08T12:07:54.638Z,6.10
2018-08-08T12:10:24.210Z,6.30
2018-08-08T12:12:53.243Z,6.20
2018-08-08T12:15:22.137Z,6.50
2018-08-08T12:17:50.739Z,6.20
2018-08-08T12:20:19.907Z,6.40
2018-08-08T12:22:48.430Z,6.90
2018-08-08T12:25:17.068Z,6.40
2018-08-08T12:27:45.830Z,6.47
2018-08-08T12:30:14.672Z,6.00
2018-08-08T12:32:43.090Z,6.70
2018-08-08T12:35:11.574Z,6.03
2018-08-08T12:37:40.277Z,6.20
2018-08-08T12:40:09.562Z,6.13
2018-08-08T12:42:37.988Z,5.70
2018-08-08T12:45:09.072Z,5.80
2018-08-08T12:47:37.557Z,6.00
2018-08-08T12:50:07.258Z,6.10
2018-08-08T12:52:35.670Z,5.73
2018-08-08T12:55:04.570Z,5.83
2018-08-08T12:57:33.535Z,6.50
2018-08-08T13:00:02.249Z,6.17
2018-08-08T13:02:30.750Z,6.33
2018-08-08T13:04:59.261Z,6.13
2018-08-08T13:07:27.801Z,6.00
2018-08-08T13:09:57.950Z,6.43
2018-08-08T13:12:26.680Z,6.53
2018-08-08T13:14:55.129Z,6.57
2018-08-08T13:17:23.527Z,6.17
2018-08-08T13:19:51.992Z,6.33
2018-08-08T13:22:20.454Z,6.83
2018-08-08T13:24:48.999Z,6.90
2018-08-08T13:27:17.987Z,7.20
2018-08-08T13:29:46.624Z,7.23
2018-08-08T13:32:15.063Z,6.97
2018-08-08T13:34:43.679Z,6.83
2018-08-08T13:37:12.141Z,7.07
2018-08-08T13:39:40.749Z,6.67
2018-08-08T13:42:09.331Z,6.50
2018-08-08T13:44:37.745Z,6.60
2018-08-08T13:47:06.162Z,6.50
2018-08-08T13:49:34.972Z,7.33
2018-08-08T13:52:03.465Z,6.73
2018-08-08T13:54:31.995Z,6.90
2018-08-08T13:57:00.462Z,6.90
2018-08-08T13:59:28.986Z,6.50
2018-08-08T14:01:57.489Z,7.17
2018-08-08T14:04:26.317Z,7.00
2018-08-08T14:06:54.725Z,6.80
2018-08-08T14:09:23.192Z,7.07
2018-08-08T14:11:52.035Z,7.27
2018-08-08T14:14:20.597Z,7.50
2018-08-08T14:16:49.168Z,6.87
2018-08-08T14:19:18.042Z,7.03
2018-08-08T14:21:46.795Z,6.67
2018-08-08T14:24:15.324Z,7.23
2018-08-08T14:26:43.740Z,7.80
2018-08-08T14:29:12.435Z,7.10
2018-08-08T14:31:40.903Z,7.23
2018-08-08T14:34:09.706Z,7.47
2018-08-08T14:36:39.134Z,8.07
2018-08-08T14:39:09.514Z,7.93
2018-08-08T14:41:39.334Z,7.70
2018-08-08T14:44:09.826Z,7.70
2018-08-08T14:46:40.054Z,7.73
2018-08-08T14:49:09.548Z,7.83
2018-08-08T14:51:38.670Z,7.40
2018-08-08T14:54:07.497Z,7.63
2018-08-08T14:56:36.648Z,6.97
2018-08-08T14:59:05.086Z,7.37
2018-08-08T15:01:34.249Z,7.60
2018-08-08T15:04:02.747Z,7.67
2018-08-08T15:06:31.250Z,7.37
2018-08-08T15:08:59.708Z,7.17
2018-08-08T15:11:28.136Z,7.57
2018-08-08T15:13:56.556Z,7.13
2018-08-08T15:16:25.218Z,7.57
2018-08-08T15:18:53.909Z,6.93
2018-08-08T15:21:22.328Z,6.77
2018-08-08T15:23:50.806Z,7.37
2018-08-08T15:26:19.332Z,7.57
2018-08-08T15:28:47.951Z,8.30
2018-08-08T15:31:16.515Z,7.83
2018-08-08T15:33:45.157Z,8.07
2018-08-08T15:36:13.686Z,7.87
2018-08-08T15:38:42.196Z,6.63
2018-08-08T15:41:10.985Z,7.10
2018-08-08T15:43:39.454Z,7.20
2018-08-08T15:46:08.558Z,6.17
2018-08-08T15:48:37.813Z,6.47
2018-08-08T15:51:06.476Z,6.40
2018-08-08T15:53:35.044Z,6.73
2018-08-08T15:56:03.591Z,5.97
2018-08-08T15:58:32.118Z,6.50
2018-08-08T16:01:00.499Z,6.20
2018-08-08T16:03:29.081Z,6.47
2018-08-08T16:05:57.520Z,6.23
2018-08-08T16:08:26.021Z,5.90
2018-08-08T16:10:54.497Z,6.40
2018-08-08T16:13:22.993Z,7.03
2018-08-08T16:15:51.410Z,6.43
2018-08-08T16:18:20.322Z,6.10
2018-08-08T16:20:48.788Z,6.67
2018-08-08T16:23:18.294Z,6.53
2018-08-08T16:25:46.691Z,6.70
2018-08-08T16:28:15.166Z,7.00
2018-08-08T16:30:43.654Z,6.47
2018-08-08T16:33:12.226Z,6.40
2018-08-08T16:35:40.728Z,6.00
2018-08-08T16:38:09.526Z,6.40
2018-08-08T16:40:37.959Z,6.47
2018-08-08T16:43:06.817Z,6.20
2018-08-08T16:45:35.280Z,6.40
2018-08-08T16:48:03.895Z,6.90
2018-08-08T16:51:03.283Z,6.50
2018-08-08T16:53:31.765Z,6.23
2018-08-08T16:56:00.270Z,6.40
2018-08-08T16:58:28.663Z,7.60
2018-08-08T17:00:57.523Z,7.33
2018-08-08T17:03:25.899Z,7.27
2018-08-08T17:05:54.414Z,7.00
2018-08-08T17:08:23.180Z,6.27
2018-08-08T17:10:52.751Z,7.00
2018-08-08T17:13:21.232Z,7.33
2018-08-08T17:15:49.771Z,6.97
2018-08-08T17:18:18.968Z,7.50
2018-08-08T17:20:49.765Z,7.33
2018-08-08T17:23:18.198Z,6.33
2018-08-08T17:25:46.699Z,6.30
2018-08-08T17:28:15.109Z,6.20
2018-08-08T17:30:45.009Z,6.20
2018-08-08T17:33:13.494Z,6.83
2018-08-08T17:35:42.019Z,6.17
2018-08-08T17:38:10.478Z,6.43
2018-08-08T17:40:39.586Z,6.50
2018-08-08T17:43:09.121Z,6.30
2018-08-08T17:45:38.652Z,6.70
2018-08-08T17:48:07.455Z,6.47
2018-08-08T17:50:36.591Z,6.47
2018-08-08T17:53:05.140Z,6.50
2018-08-08T17:55:33.675Z,7.13
2018-08-08T17:58:02.330Z,6.67
2018-08-08T18:00:30.805Z,7.00
2018-08-08T18:02:59.304Z,6.20
2018-08-08T18:05:27.891Z,6.70
2018-08-08T18:07:56.727Z,6.70
2018-08-08T18:10:25.192Z,6.40
2018-08-08T18:12:53.638Z,6.87
2018-08-08T18:15:22.285Z,6.73
2018-08-08T18:17:50.801Z,6.07
2018-08-08T18:20:19.377Z,6.37
2018-08-08T18:22:47.862Z,5.30
2018-08-08T18:25:16.488Z,5.00
2018-08-08T18:27:45.336Z,5.53
2018-08-08T18:30:14.123Z,4.70
2018-08-08T18:32:42.580Z,5.03
2018-08-08T18:35:11.153Z,5.43
2018-08-08T18:37:39.856Z,4.70
2018-08-08T18:40:09.192Z,4.87
2018-08-08T18:42:37.632Z,4.57
2018-08-08T18:45:06.478Z,5.50
2018-08-08T18:47:35.057Z,5.53
2018-08-08T18:50:03.875Z,5.40
2018-08-08T18:52:32.345Z,4.80
2018-08-08T18:55:00.820Z,5.13
2018-08-08T18:57:29.465Z,5.30
2018-08-08T18:59:58.017Z,5.30
2018-08-08T19:02:26.485Z,5.50
2018-08-08T19:04:54.937Z,5.70
2018-08-08T19:07:23.691Z,5.87
2018-08-08T19:09:52.284Z,6.47
2018-08-08T19:12:20.739Z,5.90
2018-08-08T19:14:49.314Z,6.27
2018-08-08T19:17:17.753Z,6.00
2018-08-08T19:19:46.230Z,6.10
2018-08-08T19:22:14.759Z,5.60
2018-08-08T19:24:43.321Z,6.47
2018-08-08T19:27:11.825Z,6.03
2018-08-08T19:29:40.298Z,6.47
2018-08-08T19:32:09.934Z,5.73
2018-08-08T19:34:38.966Z,5.70
2018-08-08T19:37:08.410Z,5.80
2018-08-08T19:39:37.587Z,5.60
2018-08-08T19:42:06.645Z,5.23
2018-08-08T19:44:35.156Z,5.63
2018-08-08T19:47:03.612Z,5.97
2018-08-08T19:49:32.107Z,5.77
2018-08-08T19:52:00.581Z,5.60
2018-08-08T19:54:29.072Z,5.67
2018-08-08T19:56:57.667Z,6.47
2018-08-08T19:59:26.183Z,5.90
2018-08-08T20:01:54.960Z,7.00
2018-08-08T20:04:23.463Z,6.00
2018-08-08T20:06:51.916Z,6.93
2018-08-08T20:09:20.402Z,6.97
2018-08-08T20:11:48.892Z,7.00
2018-08-08T20:14:17.415Z,6.33
2018-08-08T20:16:45.832Z,6.40
2018-08-08T20:19:14.375Z,6.73
2018-08-08T20:21:42.786Z,6.37
2018-08-08T20:24:11.299Z,6.10
2018-08-08T20:26:40.246Z,6.73
2018-08-08T20:29:09.318Z,6.17
2018-08-08T20:31:37.807Z,6.27
2018-08-08T20:34:06.952Z,6.13
2018-08-08T20:36:35.376Z,6.73
2018-08-08T20:39:06.128Z,6.03
2018-08-08T20:41:34.579Z,6.40
2018-08-08T20:44:03.121Z,7.30
2018-08-08T20:46:31.607Z,6.50
2018-08-08T20:49:00.026Z,6.70
2018-08-08T20:51:28.532Z,6.47
2018-08-08T20:53:57.942Z,6.70
2018-08-08T20:56:26.597Z,6.47
2018-08-08T20:58:55.150Z,6.30
2018-08-08T21:01:23.616Z,5.80
2018-08-08T21:03:52.031Z,6.50
2018-08-08T21:06:20.383Z,5.90
2018-08-08T21:08:48.853Z,5.97
2018-08-08T21:11:17.298Z,5.83
2018-08-08T21:13:45.684Z,6.20
2018-08-08T21:16:14.098Z,6.03
2018-08-08T21:18:42.570Z,5.87
2018-08-08T21:21:10.968Z,6.20
2018-08-08T21:23:39.589Z,6.23
2018-08-08T21:26:08.041Z,6.13
2018-08-08T21:28:36.497Z,5.40
2018-08-08T21:31:05.286Z,5.83
2018-08-08T21:33:33.814Z,6.10
2018-08-08T21:36:02.288Z,6.50
2018-08-08T21:38:30.746Z,6.10
2018-08-08T21:40:59.210Z,6.77
2018-08-08T21:43:27.765Z,6.50
2018-08-08T21:45:56.146Z,6.90
2018-08-08T21:48:24.642Z,6.97
2018-08-08T21:50:53.404Z,6.70
2018-08-08T21:53:31.755Z,6.20
2018-08-08T21:56:11.710Z,6.63
2018-08-08T21:58:51.498Z,7.27
2018-08-08T22:01:31.468Z,6.50
2018-08-08T22:04:11.172Z,6.90
2018-08-08T22:07:54.744Z,7.27
2018-08-08T22:10:34.567Z,6.97
2018-08-08T22:13:14.568Z,6.80
2018-08-08T22:15:54.625Z,6.63
2018-08-08T22:18:34.455Z,6.77
2018-08-08T22:21:02.877Z,6.47
2018-08-08T22:23:31.575Z,7.40
2018-08-08T22:26:00.045Z,6.43
2018-08-08T22:28:28.535Z,6.40
2018-08-08T22:30:56.988Z,6.50
2018-08-08T22:33:25.589Z,6.53
2018-08-08T22:35:54.020Z,6.17
2018-08-08T22:38:22.537Z,5.83
2018-08-08T22:40:51.295Z,5.70
2018-08-08T22:43:19.888Z,6.10
2018-08-08T22:45:48.341Z,5.80
2018-08-08T22:48:16.849Z,6.17
2018-08-08T22:50:45.276Z,6.00
2018-08-08T22:53:13.763Z,5.57
2018-08-08T22:55:42.193Z,5.30
2018-08-08T22:58:10.816Z,5.60
2018-08-08T23:00:40.007Z,5.53
2018-08-08T23:03:09.077Z,5.87
2018-08-08T23:05:37.654Z,6.03
2018-08-08T23:08:06.254Z,5.80
2018-08-08T23:10:35.078Z,5.73
2018-08-08T23:13:03.684Z,5.63
2018-08-08T23:15:32.098Z,5.53
2018-08-08T23:18:00.678Z,5.40
2018-08-08T23:20:29.146Z,5.97
2018-08-08T23:22:58.505Z,5.43
2018-08-08T23:25:26.950Z,5.47
2018-08-08T23:27:55.447Z,5.87
2018-08-08T23:30:23.961Z,5.80
2018-08-08T23:32:52.543Z,5.97
2018-08-08T23:35:21.112Z,6.20
2018-08-08T23:37:49.673Z,6.40
2018-08-08T23:40:18.089Z,5.10
2018-08-08T23:42:46.494Z,5.80
2018-08-08T23:45:15.091Z,5.30
2018-08-08T23:47:43.596Z,5.37
2018-08-08T23:50:11.995Z,5.43
2018-08-08T23:52:41.767Z,5.70
2018-08-08T23:55:10.548Z,5.70
2018-08-08T23:57:39.856Z,5.97
